createdAt,value
2022-10-13T00:01:09.862Z,7.93
2022-10-13T00:03:40.352Z,8.02
2022-10-13T00:06:10.184Z,8.20
2022-10-13T00:08:40.481Z,8.15
2022-10-13T00:11:13.741Z,8.16
2022-10-13T00:13:42.881Z,8.34
2022-10-13T00:16:10.787Z,8.27
2022-10-13T00:18:39.319Z,8.16
2022-10-13T00:21:16.007Z,8.21
2022-10-13T00:23:43.392Z,8.23
2022-10-13T00:26:12.306Z,8.09
2022-10-13T00:28:39.476Z,8.02
2022-10-13T00:31:16.476Z,8.18
2022-10-13T00:33:43.411Z,8.04
2022-10-13T00:36:10.122Z,8.12
2022-10-13T00:38:36.976Z,8.26
2022-10-13T00:41:04.081Z,8.35
2022-10-13T00:43:57.099Z,8.44
2022-10-13T00:46:26.519Z,8.49
2022-10-13T00:48:54.649Z,8.56
2022-10-13T00:51:24.439Z,8.46
2022-10-13T00:53:52.901Z,8.34
2022-10-13T00:56:21.869Z,8.49
2022-10-13T00:58:49.712Z,8.54
2022-10-13T01:01:16.955Z,8.31
2022-10-13T01:03:44.267Z,8.41
2022-10-13T01:06:12.820Z,8.53
2022-10-13T01:08:39.533Z,8.35
2022-10-13T01:11:16.009Z,8.39
2022-10-13T01:14:10.428Z,8.45
2022-10-13T01:16:58.090Z,8.28
2022-10-13T01:19:57.934Z,8.44
2022-10-13T01:22:57.366Z,8.30
2022-10-13T01:25:26.960Z,8.37
2022-10-13T01:28:05.515Z,8.44
2022-10-13T01:30:41.107Z,8.33
2022-10-13T01:33:13.493Z,8.47
2022-10-13T01:35:57.081Z,8.49
2022-10-13T01:38:57.356Z,8.44
2022-10-13T01:41:35.755Z,8.55
2022-10-13T01:44:25.420Z,8.37
2022-10-13T01:46:53.372Z,8.44
2022-10-13T01:49:27.196Z,8.51
2022-10-13T01:51:56.689Z,8.41
2022-10-13T01:54:23.295Z,8.56
2022-10-13T01:56:54.504Z,8.61
2022-10-13T01:59:22.735Z,8.49
2022-10-13T02:02:03.531Z,8.59
2022-10-13T02:05:01.546Z,8.55
2022-10-13T02:07:49.089Z,8.52
2022-10-13T02:10:55.896Z,8.61
2022-10-13T02:13:26.039Z,8.41
2022-10-13T02:15:57.041Z,8.57
2022-10-13T02:18:28.272Z,8.47
2022-10-13T02:20:55.344Z,8.36
2022-10-13T02:23:24.150Z,8.49
2022-10-13T02:25:51.197Z,8.37
2022-10-13T02:28:19.141Z,8.23
2022-10-13T02:30:47.103Z,8.38
2022-10-13T02:33:14.616Z,8.30
2022-10-13T02:35:42.119Z,8.22
2022-10-13T02:38:08.974Z,8.38
2022-10-13T02:40:35.671Z,8.25
2022-10-13T02:43:02.421Z,8.22
2022-10-13T02:45:28.994Z,8.42
2022-10-13T02:47:58.250Z,8.39
2022-10-13T02:50:24.986Z,8.36
2022-10-13T02:52:53.787Z,8.54
2022-10-13T02:55:20.420Z,8.55
2022-10-13T02:57:47.233Z,8.57
2022-10-13T03:00:14.940Z,8.76
2022-10-13T03:02:41.845Z,8.71
2022-10-13T03:05:08.979Z,8.78
2022-10-13T03:07:36.316Z,8.94
2022-10-13T03:10:03.822Z,8.89
2022-10-13T03:12:30.517Z,8.94
2022-10-13T03:14:57.539Z,9.01
2022-10-13T03:17:24.091Z,8.92
2022-10-13T03:19:52.743Z,8.92
2022-10-13T03:22:19.675Z,9.00
2022-10-13T03:24:46.587Z,8.87
2022-10-13T03:27:13.243Z,8.94
2022-10-13T03:29:40.563Z,9.08
2022-10-13T03:32:07.235Z,8.97
2022-10-13T03:34:33.893Z,8.98
2022-10-13T03:37:00.462Z,9.12
2022-10-13T03:39:27.067Z,8.98
2022-10-13T03:41:53.647Z,8.99
2022-10-13T03:44:20.443Z,9.17
2022-10-13T03:46:47.045Z,9.05
2022-10-13T03:49:13.685Z,9.11
2022-10-13T03:51:40.625Z,9.25
2022-10-13T03:54:09.419Z,9.15
2022-10-13T03:56:36.384Z,9.15
2022-10-13T03:59:04.965Z,9.26
2022-10-13T04:01:32.581Z,9.12
2022-10-13T04:04:02.256Z,9.14
2022-10-13T04:06:30.554Z,9.25
2022-10-13T04:08:57.877Z,9.10
2022-10-13T04:11:24.533Z,9.08
2022-10-13T04:13:51.807Z,9.22
2022-10-13T04:16:22.012Z,9.05
2022-10-13T04:18:54.941Z,9.00
2022-10-13T04:21:22.209Z,9.19
2022-10-13T04:23:49.300Z,9.02
2022-10-13T04:26:22.036Z,8.99
2022-10-13T04:28:50.603Z,9.15
2022-10-13T04:31:17.725Z,8.99
2022-10-13T04:33:45.216Z,8.97
2022-10-13T04:36:13.986Z,9.14
2022-10-13T04:38:41.479Z,9.03
2022-10-13T04:41:11.812Z,9.04
2022-10-13T04:43:38.480Z,9.17
2022-10-13T04:46:19.764Z,8.99
2022-10-13T04:48:47.428Z,9.05
2022-10-13T04:51:19.172Z,9.10
2022-10-13T04:53:46.261Z,8.95
2022-10-13T04:56:16.015Z,9.07
2022-10-13T04:58:44.256Z,9.09
2022-10-13T05:01:21.223Z,8.93
2022-10-13T05:03:51.571Z,9.08
2022-10-13T05:06:23.012Z,9.04
2022-10-13T05:08:53.147Z,8.94
2022-10-13T05:11:20.705Z,8.91
2022-10-13T05:13:48.596Z,9.07
2022-10-13T05:16:17.291Z,9.05
2022-10-13T05:18:44.457Z,8.94
2022-10-13T05:21:16.952Z,9.00
2022-10-13T05:23:45.501Z,9.09
2022-10-13T05:26:16.910Z,8.94
2022-10-13T05:28:44.283Z,8.99
2022-10-13T05:31:12.656Z,9.14
2022-10-13T05:33:39.617Z,9.01
2022-10-13T05:36:08.654Z,8.98
2022-10-13T05:38:35.230Z,9.16
2022-10-13T05:41:14.951Z,9.16
2022-10-13T05:43:42.111Z,9.10
2022-10-13T05:46:09.463Z,9.18
2022-10-13T05:48:39.168Z,9.31
2022-10-13T05:51:17.356Z,9.21
2022-10-13T05:53:57.948Z,9.16
2022-10-13T05:56:30.244Z,9.29
2022-10-13T05:59:01.668Z,9.30
2022-10-13T06:01:33.051Z,9.23
2022-10-13T06:04:04.278Z,9.26
2022-10-13T06:06:31.875Z,9.41
2022-10-13T06:09:03.420Z,9.28
2022-10-13T06:11:32.251Z,9.30
2022-10-13T06:13:59.175Z,9.48
2022-10-13T06:16:26.489Z,9.38
2022-10-13T06:18:53.119Z,9.30
2022-10-13T06:21:19.785Z,9.39
2022-10-13T06:23:46.391Z,9.48
2022-10-13T06:26:13.063Z,9.40
2022-10-13T06:28:39.745Z,9.39
2022-10-13T06:31:07.175Z,9.58
2022-10-13T06:33:34.726Z,9.70
2022-10-13T06:36:03.386Z,9.52
2022-10-13T06:38:30.224Z,9.44
2022-10-13T06:41:03.165Z,9.62
2022-10-13T06:43:38.729Z,9.53
2022-10-13T06:46:07.201Z,9.42
2022-10-13T06:48:33.861Z,9.55
2022-10-13T06:51:04.923Z,9.57
2022-10-13T06:53:32.066Z,9.48
2022-10-13T06:55:59.787Z,9.59
2022-10-13T06:58:26.688Z,9.66
2022-10-13T07:00:53.981Z,9.56
2022-10-13T07:03:21.284Z,9.62
2022-10-13T07:05:47.940Z,9.82
2022-10-13T07:08:15.831Z,9.75
2022-10-13T07:10:45.277Z,9.65
2022-10-13T07:13:11.875Z,9.78
2022-10-13T07:15:40.299Z,9.82
2022-10-13T07:18:07.627Z,9.76
2022-10-13T07:20:34.764Z,9.83
2022-10-13T07:23:01.688Z,10.03
2022-10-13T07:25:30.539Z,9.97
2022-10-13T07:27:59.440Z,9.94
2022-10-13T07:30:26.876Z,10.15
2022-10-13T07:32:53.912Z,10.17
2022-10-13T07:35:22.614Z,10.15
2022-10-13T07:37:54.055Z,10.33
2022-10-13T07:40:20.774Z,10.21
2022-10-13T07:42:47.536Z,10.19
2022-10-13T07:45:14.277Z,10.33
2022-10-13T07:47:40.832Z,10.52
2022-10-13T07:50:08.013Z,10.42
2022-10-13T07:52:36.220Z,10.57
2022-10-13T07:55:03.038Z,10.59
2022-10-13T07:57:29.621Z,10.62
2022-10-13T07:59:56.299Z,10.80
2022-10-13T08:02:23.012Z,10.71
2022-10-13T08:04:51.136Z,10.75
2022-10-13T08:07:18.842Z,10.88
2022-10-13T08:09:47.833Z,10.78
2022-10-13T08:12:14.431Z,10.94
2022-10-13T08:14:42.030Z,10.91
2022-10-13T08:17:08.903Z,10.87
2022-10-13T08:19:36.132Z,11.07
2022-10-13T08:22:05.546Z,11.00
2022-10-13T08:24:36.007Z,11.05
2022-10-13T08:27:02.807Z,11.12
2022-10-13T08:29:29.446Z,11.01
2022-10-13T08:31:56.126Z,11.19
2022-10-13T08:34:24.429Z,11.19
2022-10-13T08:36:54.503Z,11.17
2022-10-13T08:39:22.536Z,11.40
2022-10-13T08:41:49.852Z,11.37
2022-10-13T08:47:49.029Z,11.39
2022-10-13T08:50:25.635Z,11.34
2022-10-13T08:53:05.355Z,11.49
2022-10-13T08:55:55.631Z,11.38
2022-10-13T08:58:28.211Z,11.53
2022-10-13T09:01:00.930Z,11.45
2022-10-13T09:03:30.402Z,11.52
2022-10-13T09:06:11.707Z,11.59
2022-10-13T09:08:44.196Z,11.48
2022-10-13T09:11:12.849Z,11.66
2022-10-13T09:13:39.460Z,11.58
2022-10-13T09:16:06.645Z,11.73
2022-10-13T09:18:34.864Z,11.81
2022-10-13T09:21:19.598Z,11.83
2022-10-13T09:23:48.764Z,11.86
2022-10-13T09:26:22.204Z,11.69
2022-10-13T09:28:49.838Z,11.85
2022-10-13T09:31:27.736Z,11.84
2022-10-13T09:34:03.333Z,11.73
2022-10-13T09:36:31.321Z,11.82
2022-10-13T09:39:15.777Z,11.54
2022-10-13T09:41:43.748Z,11.64
2022-10-13T09:44:17.698Z,11.69
2022-10-13T09:46:49.963Z,11.58
2022-10-13T09:49:41.560Z,11.62
2022-10-13T09:52:13.940Z,11.51
2022-10-13T09:54:40.456Z,11.68
2022-10-13T09:57:23.404Z,11.54
2022-10-13T09:59:52.635Z,11.66
2022-10-13T10:02:29.246Z,11.75
2022-10-13T10:05:01.089Z,11.51
2022-10-13T10:07:33.111Z,11.60
2022-10-13T10:10:15.736Z,11.62
2022-10-13T10:12:43.796Z,11.55
2022-10-13T10:15:20.422Z,11.69
2022-10-13T10:17:54.621Z,11.57
2022-10-13T10:20:51.500Z,11.76
2022-10-13T10:23:40.251Z,11.66
2022-10-13T10:26:18.161Z,11.74
2022-10-13T10:29:16.495Z,11.76
2022-10-13T10:32:04.468Z,11.78
2022-10-13T10:34:53.692Z,11.94
2022-10-13T10:37:38.272Z,11.98
2022-10-13T10:40:39.249Z,12.17
2022-10-13T10:43:43.287Z,12.12
2022-10-13T10:46:18.182Z,12.29
2022-10-13T10:48:47.044Z,12.14
2022-10-13T10:51:16.491Z,12.16
2022-10-13T10:53:59.919Z,12.18
2022-10-13T10:56:44.300Z,12.03
2022-10-13T10:59:29.392Z,12.12
2022-10-13T11:02:16.197Z,11.95
2022-10-13T11:04:45.659Z,11.94
2022-10-13T11:07:14.641Z,12.09
2022-10-13T11:09:41.286Z,12.00
2022-10-13T11:12:22.809Z,12.07
2022-10-13T11:14:55.599Z,12.05
2022-10-13T11:17:38.531Z,12.05
2022-10-13T11:20:17.998Z,12.27
2022-10-13T11:23:04.689Z,12.07
2022-10-13T11:25:37.215Z,12.18
2022-10-13T11:28:22.128Z,12.20
2022-10-13T11:30:53.257Z,12.08
2022-10-13T11:33:34.752Z,12.28
2022-10-13T11:36:32.462Z,12.18
2022-10-13T11:42:11.508Z,12.49
2022-10-13T11:44:57.544Z,12.36
2022-10-13T11:47:48.981Z,12.50
2022-10-13T11:50:44.291Z,12.60
2022-10-13T11:53:13.739Z,12.24
2022-10-13T11:55:55.247Z,12.44
2022-10-13T11:58:27.841Z,12.51
2022-10-13T12:01:01.916Z,12.27
2022-10-13T12:03:41.043Z,12.42
2022-10-13T12:06:33.769Z,12.57
2022-10-13T12:09:25.855Z,12.29
2022-10-13T12:12:04.657Z,12.38
2022-10-13T12:17:23.467Z,12.36
2022-10-13T12:19:51.067Z,12.33
2022-10-13T12:22:17.797Z,12.50
2022-10-13T12:25:03.605Z,12.72
2022-10-13T12:27:32.856Z,12.54
2022-10-13T12:30:00.909Z,12.59
2022-10-13T12:32:30.188Z,12.71
2022-10-13T12:34:56.957Z,12.68
2022-10-13T12:37:31.080Z,12.35
2022-10-13T12:39:58.579Z,12.47
2022-10-13T12:42:37.859Z,12.52
2022-10-13T12:45:05.223Z,12.58
2022-10-13T12:47:44.684Z,12.31
2022-10-13T12:50:25.756Z,12.27
2022-10-13T12:52:55.020Z,12.42
2022-10-13T12:55:23.404Z,12.47
2022-10-13T12:57:51.674Z,12.13
2022-10-13T13:00:26.498Z,12.14
2022-10-13T13:02:56.496Z,12.33
2022-10-13T13:05:52.360Z,12.40
2022-10-13T13:08:26.057Z,12.17
2022-10-13T13:11:04.964Z,12.04
2022-10-13T13:13:33.642Z,12.20
2022-10-13T13:16:18.560Z,11.95
2022-10-13T13:18:46.880Z,11.78
2022-10-13T13:21:15.570Z,11.94
2022-10-13T13:23:51.176Z,11.80
2022-10-13T13:26:25.147Z,11.73
2022-10-13T13:28:56.686Z,11.84
2022-10-13T13:31:25.899Z,11.59
2022-10-13T13:33:52.679Z,11.65
2022-10-13T13:36:24.858Z,11.71
2022-10-13T13:38:52.863Z,11.41
2022-10-13T13:41:19.863Z,11.38
2022-10-13T13:43:46.794Z,11.48
2022-10-13T13:46:22.269Z,11.13
2022-10-13T13:48:49.479Z,11.21
2022-10-13T13:51:16.966Z,11.35
2022-10-13T13:53:43.604Z,11.03
2022-10-13T13:56:14.361Z,11.04
2022-10-13T13:58:41.028Z,11.01
2022-10-13T14:01:08.774Z,10.88
2022-10-13T14:03:35.394Z,11.00
2022-10-13T14:06:02.823Z,10.86
2022-10-13T14:08:35.198Z,10.78
2022-10-13T14:11:07.843Z,10.94
2022-10-13T14:13:35.637Z,10.86
2022-10-13T14:16:03.711Z,10.72
2022-10-13T14:18:31.112Z,10.90
2022-10-13T14:20:57.991Z,10.74
2022-10-13T14:23:24.640Z,10.79
2022-10-13T14:25:51.328Z,10.85
2022-10-13T14:28:18.602Z,10.68
2022-10-13T14:30:45.395Z,10.85
2022-10-13T14:33:12.172Z,10.91
2022-10-13T14:35:38.796Z,10.70
2022-10-13T14:38:05.511Z,10.80
2022-10-13T14:40:32.117Z,10.93
2022-10-13T14:42:58.744Z,10.68
2022-10-13T14:45:27.663Z,10.79
2022-10-13T14:47:54.217Z,10.91
2022-10-13T14:50:20.789Z,10.76
2022-10-13T14:52:47.341Z,10.71
2022-10-13T14:55:13.936Z,10.86
2022-10-13T14:57:40.588Z,10.63
2022-10-13T15:00:09.835Z,10.65
2022-10-13T15:02:36.590Z,10.79
2022-10-13T15:05:03.283Z,10.93
2022-10-13T15:07:31.301Z,10.76
2022-10-13T15:10:05.309Z,10.63
2022-10-13T15:12:33.047Z,10.79
2022-10-13T15:15:02.036Z,10.86
2022-10-13T15:17:30.734Z,10.60
2022-10-13T15:19:57.329Z,10.68
2022-10-13T15:22:24.264Z,10.80
2022-10-13T15:24:51.125Z,10.62
2022-10-13T15:27:17.757Z,10.57
2022-10-13T15:29:44.479Z,10.72
2022-10-13T15:32:18.061Z,10.69
2022-10-13T15:34:44.953Z,10.47
2022-10-13T15:37:11.978Z,10.63
2022-10-13T15:39:38.842Z,10.75
2022-10-13T15:42:08.164Z,10.81
2022-10-13T15:44:57.316Z,10.85
2022-10-13T15:47:21.586Z,10.85
2022-10-13T15:49:48.131Z,10.88
2022-10-13T15:52:14.733Z,10.92
2022-10-13T15:54:41.347Z,10.97
2022-10-13T15:57:07.940Z,10.93
2022-10-13T15:59:34.619Z,10.97
2022-10-13T16:02:01.260Z,10.99
2022-10-13T16:04:27.885Z,10.97
2022-10-13T16:06:55.135Z,10.97
2022-10-13T16:09:22.539Z,10.98
2022-10-13T16:11:49.296Z,11.04
2022-10-13T16:14:15.933Z,11.05
2022-10-13T16:16:42.518Z,11.05
2022-10-13T16:19:09.213Z,11.01
2022-10-13T16:21:35.851Z,11.00
2022-10-13T16:24:02.611Z,11.00
2022-10-13T16:26:31.503Z,11.00
2022-10-13T16:28:58.209Z,10.97
2022-10-13T16:31:24.844Z,11.00
2022-10-13T16:33:51.458Z,10.97
2022-10-13T16:36:20.129Z,10.97
2022-10-13T16:38:47.280Z,11.00
2022-10-13T16:41:16.993Z,10.98
2022-10-13T16:43:45.045Z,11.00
2022-10-13T16:46:14.338Z,10.98
2022-10-13T16:48:42.727Z,10.95
2022-10-13T16:51:14.895Z,10.91
2022-10-13T16:53:41.829Z,10.94
2022-10-13T16:56:09.142Z,10.99
2022-10-13T16:58:35.878Z,10.95
2022-10-13T17:01:05.348Z,10.97
2022-10-13T17:03:32.291Z,10.92
2022-10-13T17:05:59.609Z,10.90
2022-10-13T17:08:26.245Z,10.88
2022-10-13T17:10:58.110Z,10.83
2022-10-13T17:13:25.178Z,10.81
2022-10-13T17:15:53.743Z,10.79
2022-10-13T17:18:20.516Z,10.78
2022-10-13T17:21:00.610Z,10.70
2022-10-13T17:23:30.761Z,10.68
2022-10-13T17:26:04.498Z,10.62
2022-10-13T17:28:31.069Z,10.61
2022-10-13T17:31:04.504Z,10.57
2022-10-13T17:33:35.739Z,10.50
2022-10-13T17:36:07.568Z,10.51
2022-10-13T17:38:34.477Z,10.49
2022-10-13T17:41:03.276Z,10.48
2022-10-13T17:43:30.637Z,10.42
2022-10-13T17:46:35.582Z,10.42
2022-10-13T17:49:05.275Z,10.35
2022-10-13T17:51:31.855Z,10.37
2022-10-13T17:54:00.163Z,10.36
2022-10-13T17:56:27.517Z,10.37
2022-10-13T17:58:54.761Z,10.39
2022-10-13T18:01:34.411Z,10.38
2022-10-13T18:04:06.589Z,10.37
2022-10-13T18:06:44.120Z,10.36
2022-10-13T18:09:17.407Z,10.37
2022-10-13T18:11:50.198Z,10.40
2022-10-13T18:14:19.303Z,10.40
2022-10-13T18:16:46.761Z,10.38
2022-10-13T18:19:13.639Z,10.38
2022-10-13T18:21:40.407Z,10.42
2022-10-13T18:24:07.733Z,10.46
2022-10-13T18:26:39.601Z,10.46
2022-10-13T18:29:07.762Z,10.45
2022-10-13T18:31:38.644Z,10.42
2022-10-13T18:34:07.977Z,10.39
2022-10-13T18:36:42.507Z,10.41
2022-10-13T18:39:12.083Z,10.27
2022-10-13T18:41:39.564Z,10.27
2022-10-13T18:44:07.054Z,10.31
2022-10-13T18:46:38.084Z,10.32
2022-10-13T18:49:06.226Z,10.32
2022-10-13T18:51:36.202Z,10.32
2022-10-13T18:54:04.656Z,10.32
2022-10-13T18:56:32.576Z,10.33
2022-10-13T18:59:01.099Z,10.33
2022-10-13T19:01:32.401Z,10.34
2022-10-13T19:03:59.624Z,10.34
2022-10-13T19:06:30.481Z,10.37
2022-10-13T19:09:03.761Z,10.36
2022-10-13T19:11:32.690Z,10.37
2022-10-13T19:14:03.187Z,10.36
2022-10-13T19:16:33.488Z,10.37
2022-10-13T19:19:00.113Z,10.34
2022-10-13T19:21:26.800Z,9.93
2022-10-13T19:23:55.500Z,9.79
2022-10-13T19:26:29.244Z,9.94
2022-10-13T19:29:00.527Z,10.04
2022-10-13T19:31:29.328Z,10.13
2022-10-13T19:33:56.444Z,10.16
2022-10-13T19:36:27.177Z,10.20
2022-10-13T19:38:54.813Z,10.27
2022-10-13T19:41:21.621Z,10.30
2022-10-13T19:43:49.356Z,10.35
2022-10-13T19:46:16.876Z,10.38
2022-10-13T19:48:44.874Z,10.40
2022-10-13T19:51:12.259Z,10.41
2022-10-13T19:53:40.378Z,10.43
2022-10-13T19:56:07.768Z,10.45
2022-10-13T19:58:34.993Z,10.51
2022-10-13T20:01:04.377Z,10.53
2022-10-13T20:03:31.393Z,10.56
2022-10-13T20:05:58.749Z,10.59
2022-10-13T20:08:25.491Z,10.59
2022-10-13T20:10:52.123Z,10.56
2022-10-13T20:13:18.847Z,10.60
2022-10-13T20:15:45.916Z,10.60
2022-10-13T20:18:13.394Z,10.60
2022-10-13T20:20:41.311Z,10.25
2022-10-13T20:23:11.063Z,9.84
2022-10-13T20:25:38.437Z,9.79
2022-10-13T20:28:07.988Z,9.96
2022-10-13T20:30:35.064Z,10.08
2022-10-13T20:33:01.751Z,10.11
2022-10-13T20:35:28.408Z,9.90
2022-10-13T20:37:55.264Z,9.56
2022-10-13T20:40:22.261Z,9.57
2022-10-13T20:42:50.768Z,9.71
2022-10-13T20:45:17.808Z,9.43
2022-10-13T20:47:44.509Z,9.41
2022-10-13T20:50:11.292Z,9.56
2022-10-13T20:52:38.641Z,9.32
2022-10-13T20:55:05.491Z,9.27
2022-10-13T20:57:32.677Z,9.46
2022-10-13T20:59:59.256Z,9.62
2022-10-13T21:02:25.877Z,9.71
2022-10-13T21:04:52.468Z,9.39
2022-10-13T21:07:19.981Z,9.20
2022-10-13T21:09:50.198Z,9.34
2022-10-13T21:12:19.733Z,9.28
2022-10-13T21:14:46.471Z,9.12
2022-10-13T21:17:13.125Z,9.27
2022-10-13T21:19:39.675Z,9.18
2022-10-13T21:22:06.319Z,9.02
2022-10-13T21:24:32.906Z,9.16
2022-10-13T21:27:01.759Z,9.16
2022-10-13T21:29:28.595Z,8.93
2022-10-13T21:31:57.293Z,8.97
2022-10-13T21:34:23.895Z,9.09
2022-10-13T21:36:50.489Z,8.91
2022-10-13T21:39:17.063Z,8.91
2022-10-13T21:41:43.757Z,9.08
2022-10-13T21:44:13.985Z,8.88
2022-10-13T21:46:40.542Z,8.80
2022-10-13T21:49:07.288Z,8.93
2022-10-13T21:51:36.709Z,8.71
2022-10-13T21:54:09.721Z,8.51
2022-10-13T21:56:37.297Z,8.64
2022-10-13T21:59:04.798Z,8.48
2022-10-13T22:01:31.741Z,8.21
2022-10-13T22:04:00.670Z,8.24
2022-10-13T22:06:29.735Z,8.25
2022-10-13T22:08:58.504Z,8.12
2022-10-13T22:11:31.871Z,8.18
2022-10-13T22:13:59.164Z,8.36
2022-10-13T22:16:35.821Z,8.21
2022-10-13T22:19:03.061Z,8.21
2022-10-13T22:21:33.516Z,8.42
2022-10-13T22:24:08.019Z,8.25
2022-10-13T22:26:37.729Z,8.14
2022-10-13T22:29:06.219Z,8.31
2022-10-13T22:31:33.687Z,8.43
2022-10-13T22:34:01.596Z,8.39
2022-10-13T22:36:29.469Z,8.43
2022-10-13T22:38:58.591Z,8.59
2022-10-13T22:41:25.626Z,8.41
2022-10-13T22:43:53.893Z,8.35
2022-10-13T22:46:23.391Z,8.55
2022-10-13T22:48:50.899Z,8.32
2022-10-13T22:51:20.353Z,8.22
2022-10-13T22:53:47.776Z,8.35
2022-10-13T22:56:17.537Z,8.51
2022-10-13T22:58:44.593Z,8.47
2022-10-13T23:01:14.736Z,8.50
2022-10-13T23:03:41.745Z,8.70
2022-10-13T23:06:15.317Z,8.56
2022-10-13T23:08:42.137Z,8.52
2022-10-13T23:11:09.320Z,8.74
2022-10-13T23:13:36.018Z,8.71
2022-10-13T23:16:08.885Z,8.58
2022-10-13T23:18:35.586Z,8.77
2022-10-13T23:21:06.779Z,8.81
2022-10-13T23:23:34.066Z,8.70
2022-10-13T23:26:09.750Z,8.77
2022-10-13T23:28:36.865Z,8.83
2022-10-13T23:31:05.663Z,8.59
2022-10-13T23:33:35.237Z,8.62
2022-10-13T23:36:02.834Z,8.81
2022-10-13T23:38:32.915Z,8.73
2022-10-13T23:41:13.532Z,8.64
2022-10-13T23:43:41.105Z,8.83
2022-10-13T23:46:10.549Z,8.74
2022-10-13T23:48:38.149Z,8.63
2022-10-13T23:51:24.483Z,8.81
2022-10-13T23:53:53.876Z,8.74
2022-10-13T23:56:20.805Z,8.61
2022-10-13T23:58:49.907Z,8.75
